M I D A S
Marine Information and Data Acquisition System
Tripno 947 of the Zeeleeuw from 2005-07-07 06:26:53 to 2005-07-07 13:50:01
Back to CruiseResearch ActivitiesStationsMapUnderway DataData graphs

EquipmentUnitsComment
TimeDGPSUTC
LatitudeDGPSDM.mWGS84
LongitudeDGPSDM.mWGS84
TemperatureSBE03/SBE38deg celciusITS90
ConductivitySBE21S/mITS90
SalinitySBE21 Practical Salinity Units
ChlorophylAChelsea fluorimeterg/lCalibrated in Aceton
Missing or incorrect values are displayed as -999
Sea surface data collected by the RV Zeeleeuw from 2005-07-07 06:32:39 to 2005-07-07 14:01:09
Time Latitude Longitude Temperature Conductivity Salinity ChlorophylA
2005-07-07 06:33:44 51°13.598 2°56.097 18.1601 1.409431 9.506992 8.724802
2005-07-07 06:34:44 51°13.57 2°56.157 18.1549 1.787971 12.295545 8.691093
2005-07-07 06:35:44 51°13.549 2°56.231 18.0778 1.505041 10.20465 8.623674
2005-07-07 06:36:44 51°13.552 2°56.231 18.1031 0.93979 6.145649 8.28658
2005-07-07 06:37:44 51°13.545 2°56.209 18.1049 1.337118 8.98429 8.623674
2005-07-07 06:38:44 51°13.544 2°56.198 18.1239 1.357762 9.134983 9.466409
2005-07-07 06:39:44 51°13.548 2°56.188 18.1181 1.510389 10.247728 9.196734
2005-07-07 06:40:44 51°13.545 2°56.192 18.1286 1.39067 9.372467 9.163024
2005-07-07 06:41:44 51°13.578 2°56.075 18.1036 1.598901 10.899957 9.567537
2005-07-07 06:42:44 51°13.644 2°55.918 18.0916 1.435637 9.70167 9.702375
2005-07-07 06:43:44 51°13.723 2°55.754 18.0955 1.172029 7.79286 9.668665
2005-07-07 06:44:44 51°13.831 2°55.632 18.1447 1.212034 8.079121 9.567537
2005-07-07 06:45:44 51°13.957 2°55.539 18.2018 1.796577 12.359516 9.668665
2005-07-07 06:46:44 51°14.089 2°55.447 18.1991 2.179888 15.243432 9.904631
2005-07-07 06:47:44 51°14.232 2°55.305 18.085 2.0492 14.259041 8.893349
2005-07-07 06:48:44 51°14.348 2°55.098 18.1096 1.521713 10.340286 8.927059
2005-07-07 06:49:44 51°14.485 2°54.895 18.0808 1.870266 12.926011 8.724802
2005-07-07 06:50:45 51°14.672 2°54.745 17.9408 3.356763 24.589269 9.4327
2005-07-07 06:51:44 51°14.851 2°54.597 17.8799 3.682508 27.314295 8.85964
2005-07-07 06:52:44 51°15.029 2°54.449 17.8121 4.094632 30.781004 8.28658
2005-07-07 06:53:44 51°15.211 2°54.291 17.7848 4.280205 32.395001 8.556255
2005-07-07 06:54:44 51°15.391 2°54.139 17.722 4.36942 33.170569 8.657383
2005-07-07 06:55:44 51°15.572 2°53.976 17.6679 4.409285 33.560586 8.320289
2005-07-07 06:56:44 51°15.755 2°53.811 17.6165 4.417617 33.674778 8.556255
2005-07-07 06:57:44 51°15.935 2°53.648 17.7176 4.419516 33.710838 8.387708
2005-07-07 06:58:44 51°16.117 2°53.489 17.8183 4.419303 33.63032 8.893349
2005-07-07 06:59:44 51°16.307 2°53.337 17.8881 4.411498 33.482754 8.252871
2005-07-07 07:00:44 51°16.493 2°53.186 17.8855 4.421305 33.517806 8.28658
2005-07-07 07:01:44 51°16.677 2°53.021 17.8426 4.436281 33.66098 8.353999
2005-07-07 07:02:44 51°16.855 2°52.863 17.7722 4.446407 33.778141 8.522546
2005-07-07 07:03:44 51°17.037 2°52.7 17.6738 4.451259 33.879009 7.71352
2005-07-07 07:04:45 51°17.22 2°52.543 17.5883 4.450523 33.976227 7.443845
2005-07-07 07:05:44 51°17.396 2°52.387 17.6783 4.447886 33.975564 7.74723
2005-07-07 07:06:44 51°17.578 2°52.219 17.7149 4.4501 33.928355 7.005623
2005-07-07 07:07:44 51°17.774 2°52.128 17.7018 4.44683 33.878088 7.612392
2005-07-07 07:08:44 51°17.975 2°52.123 17.69 4.440713 33.837403 7.511264
2005-07-07 07:09:44 51°18.176 2°52.137 17.6901 4.43871 33.83118 10.679947
2005-07-07 07:10:44 51°18.379 2°52.147 17.6923 4.437233 33.815569 10.342853
2005-07-07 07:11:44 51°18.583 2°52.159 17.6883 4.436284 33.807475 8.960768
2005-07-07 07:12:44 51°18.789 2°52.165 17.6924 4.436284 33.808681 8.691093
2005-07-07 07:13:44 51°18.996 2°52.17 17.69 4.437866 33.820966 10.275435
2005-07-07 07:14:43 51°19.199 2°52.171 17.7155 4.437022 33.815581 10.781076
2005-07-07 07:15:44 51°19.402 2°52.173 17.7619 4.413503 33.584532 10.882204
2005-07-07 07:16:44 51°19.607 2°52.171 17.7815 4.397261 33.41535 10.949623
2005-07-07 07:17:44 51°19.812 2°52.166 17.7914 4.393992 33.375087 11.859777
2005-07-07 07:18:44 51°20.014 2°52.177 17.7977 4.393359 33.361401 12.196871
2005-07-07 07:19:44 51°20.218 2°52.188 17.7996 4.378067 33.226839 13.107024
2005-07-07 07:20:44 51°20.423 2°52.158 17.7843 4.38566 33.29425 13.814922
2005-07-07 07:21:44 51°20.625 2°52.18 17.7705 4.386082 33.310867 11.893486
2005-07-07 07:22:44 51°20.826 2°52.191 17.7753 4.37406 33.212324 16.444255
2005-07-07 07:23:44 51°21.005 2°52.021 17.7853 4.377013 33.236214 12.533965
2005-07-07 07:24:44 51°21.159 2°51.778 17.7599 4.369947 33.170913 13.91605
2005-07-07 07:25:44 51°21.328 2°51.566 17.7166 4.362565 33.130076 14.152016
2005-07-07 07:26:44 51°21.521 2°51.428 17.7001 4.357082 33.118903 13.275571
2005-07-07 07:27:44 51°21.726 2°51.385 17.6952 4.355922 33.119673 13.208153
2005-07-07 07:28:44 51°21.927 2°51.435 17.6955 4.355184 33.118123 13.781212
2005-07-07 07:29:44 51°22.112 2°51.563 17.6899 4.358769 33.14447 15.668939
2005-07-07 07:30:44 51°22.298 2°51.681 17.6846 4.359402 33.151623 14.253144
2005-07-07 07:31:44 51°22.488 2°51.802 17.6731 4.368894 33.240637 14.556529
2005-07-07 07:32:44 51°22.675 2°51.918 17.6414 4.372269 33.284197 13.174443
2005-07-07 07:33:44 51°22.863 2°52.034 17.6363 4.378807 33.352964 12.837349
2005-07-07 07:34:44 51°23.047 2°52.15 17.6228 4.377331 33.350515 12.028324
2005-07-07 07:35:44 51°23.236 2°52.261 17.6059 4.379335 33.379517 13.814922
2005-07-07 07:36:44 51°23.42 2°52.373 17.6189 4.377648 33.372889 13.275571
2005-07-07 07:37:44 51°23.606 2°52.481 17.6062 4.371742 33.319566 13.208153
2005-07-07 07:38:44 51°23.787 2°52.606 17.5987 4.372586 33.331524 12.264289
2005-07-07 07:39:44 51°23.969 2°52.735 17.6125 4.373535 33.347367 12.533965
2005-07-07 07:40:44 51°24.144 2°52.868 17.6164 4.371215 33.316264 16.039742
2005-07-07 07:41:44 51°24.329 2°52.984 17.6226 4.368895 33.293514 11.65752
2005-07-07 07:42:44 51°24.518 2°53.085 17.6342 4.364782 33.252525 12.736221
2005-07-07 07:43:44 51°24.707 2°53.191 17.633 4.360774 33.214829 11.65752
2005-07-07 07:44:44 51°24.894 2°53.295 17.6297 4.357083 33.178654 14.185725
2005-07-07 07:45:44 51°25.082 2°53.403 17.6132 4.354763 33.168977 12.533965
2005-07-07 07:46:44 51°25.271 2°53.511 17.6256 4.356767 33.191379 9.736084
2005-07-07 07:47:44 51°25.456 2°53.625 17.6739 4.351705 33.137605 12.365418
2005-07-07 07:48:44 51°25.648 2°53.73 17.7187 4.340526 32.999424 13.073315
2005-07-07 07:49:44 51°25.837 2°53.839 17.7448 4.333354 32.905622 13.444118
2005-07-07 07:50:44 51°26.021 2°53.956 17.7656 4.327237 32.835582 11.994614
2005-07-07 07:51:44 51°26.205 2°54.081 17.7898 4.323019 32.781137 12.567674
2005-07-07 07:52:44 51°26.393 2°54.207 17.7813 4.319855 32.740349 11.253007
2005-07-07 07:53:44 51°26.58 2°54.33 17.7696 4.318168 32.729552 10.578819
2005-07-07 07:54:44 51°26.765 2°54.448 17.7246 4.323019 32.792223 10.949623
2005-07-07 07:55:44 51°26.945 2°54.571 17.5826 4.313635 32.75524 10.477691
2005-07-07 07:56:44 51°27.123 2°54.696 17.5596 4.312898 32.840917 10.5114
2005-07-07 07:57:44 51°27.308 2°54.82 17.5554 4.316695 32.892051 10.713657
2005-07-07 07:58:44 51°27.489 2°54.944 17.5576 4.316484 32.893788 9.567537
2005-07-07 07:59:44 51°27.667 2°55.07 17.55 4.315851 32.890755 11.185589
2005-07-07 08:00:44 51°27.848 2°55.195 17.5463 4.315007 32.887691 10.5114
2005-07-07 08:01:44 51°28.03 2°55.322 17.543 4.300244 32.766084 12.23058
2005-07-07 08:02:44 51°28.21 2°55.456 17.5425 4.30151 32.778032 9.634956
2005-07-07 08:03:44 51°28.392 2°55.588 17.5293 4.332618 33.046624 12.80364
2005-07-07 08:04:44 51°28.576 2°55.722 17.5024 4.337048 33.097433 12.129452
2005-07-07 08:05:44 51°28.758 2°55.857 17.4896 4.34327 33.167163 12.163161
2005-07-07 08:06:44 51°28.943 2°55.99 17.4587 4.345379 33.200055 12.533965
2005-07-07 08:07:44 51°29.125 2°56.124 17.4227 4.348543 33.249157 13.680084
2005-07-07 08:08:44 51°29.304 2°56.256 17.4212 4.349071 33.282356 13.309281
2005-07-07 08:09:44 51°29.489 2°56.385 17.4471 4.346435 33.257407 11.69123
2005-07-07 08:10:44 51°29.671 2°56.514 17.4603 4.344325 33.219064 13.545247
2005-07-07 08:11:44 51°29.853 2°56.647 17.4759 4.342743 33.193618 11.421554
2005-07-07 08:12:44 51°30.037 2°56.781 17.4646 4.339896 33.160954 9.466409
2005-07-07 08:13:45 51°30.222 2°56.913 17.4431 4.341478 33.18638 9.736084
2005-07-07 08:14:44 51°30.409 2°57.04 17.4167 4.342638 33.214783 10.073178
2005-07-07 08:15:44 51°30.593 2°57.165 17.3849 4.342428 33.230295 9.668665
2005-07-07 08:16:44 51°30.777 2°57.291 17.3933 4.342639 33.253026 10.275435
2005-07-07 08:17:44 51°30.959 2°57.42 17.3938 4.341901 33.240128 9.837212
2005-07-07 08:18:43 51°31.138 2°57.544 17.4073 4.339475 33.222357 10.781076
2005-07-07 08:19:44 51°31.319 2°57.673 17.4128 4.335995 33.179443 10.140597
2005-07-07 08:20:44 51°31.497 2°57.801 17.4175 4.337893 33.192697 10.342853
2005-07-07 08:21:44 51°31.682 2°57.926 17.4179 4.337471 33.186105 11.859777
2005-07-07 08:22:44 51°31.849 2°58.087 17.3889 4.336522 33.181567 11.017042
2005-07-07 08:23:44 51°32.018 2°58.252 17.3773 4.335257 33.193422 9.668665
2005-07-07 08:24:44 51°32.186 2°58.423 17.3859 4.338104 33.224372 12.028324
2005-07-07 08:25:44 51°32.344 2°58.598 17.3972 4.336733 33.201878 10.039469
2005-07-07 08:26:44 51°32.507 2°58.768 17.4072 4.33726 33.196237 10.342853
2005-07-07 08:27:44 51°32.641 2°58.907 17.411 4.335046 33.172517 7.983195
2005-07-07 08:28:44 51°32.746 2°59.022 17.4271 4.332198 33.143394 8.657383
2005-07-07 08:29:44 51°32.825 2°59.085 17.4581 4.329984 33.111359 8.219161
2005-07-07 08:30:44 51°32.87 2°59.131 17.476 4.329456 33.078917 9.634956
2005-07-07 08:31:44 51°32.885 2°59.177 17.4905 4.328928 33.066104 8.657383
2005-07-07 08:32:44 51°32.879 2°59.183 17.5195 4.329455 33.053998 6.870785
2005-07-07 08:33:44 51°32.863 2°59.176 17.5424 4.327873 33.02214 7.443845
2005-07-07 08:34:44 51°32.844 2°59.162 17.5421 4.327451 33.002573 7.679811
2005-07-07 08:35:44 51°32.825 2°59.142 17.5472 4.326502 32.99271 8.320289
2005-07-07 08:36:44 51°32.806 2°59.119 17.553 4.326397 32.985312 8.28658
2005-07-07 08:37:44 51°32.785 2°59.092 17.5759 4.325553 32.972809 8.28658
2005-07-07 08:38:44 51°32.763 2°59.062 17.5884 4.327872 32.973686 6.870785
2005-07-07 08:39:44 51°32.737 2°59.03 17.5866 4.327556 32.964504 6.60111
2005-07-07 08:40:44 51°32.71 2°58.996 17.5754 4.327029 32.961784 7.039332
2005-07-07 08:41:44 51°32.726 2°58.983 17.5711 4.327134 32.969169 6.735947
2005-07-07 08:42:44 51°32.803 2°59.102 17.5593 4.326713 32.972067 6.870785
2005-07-07 08:43:44 51°32.913 2°59.223 17.5883 4.324814 32.958849 7.106751
2005-07-07 08:44:44 51°33.024 2°59.354 17.5002 4.32144 32.908316 6.702238
2005-07-07 08:45:44 51°33.121 2°59.534 17.3897 4.337892 33.159314 6.432563
2005-07-07 08:46:44 51°33.191 2°59.659 17.3893 4.339686 33.225956 6.398853
2005-07-07 08:47:44 51°33.197 2°59.677 17.393 4.336311 33.19767 6.769657
2005-07-07 08:48:44 51°33.195 2°59.666 17.3995 4.335468 33.186867 6.196597
2005-07-07 08:49:44 51°33.224 2°59.67 17.3897 4.335679 33.187478 6.735947
2005-07-07 08:50:44 51°33.299 2°59.823 17.387 4.335784 33.196144 5.522409
2005-07-07 08:51:44 51°33.404 3°0.005 17.4023 4.334202 33.182008 5.657247
2005-07-07 08:52:44 51°33.43 3°0.065 17.4189 4.330722 33.133746 6.533691
2005-07-07 08:53:44 51°33.404 3°0.063 17.4275 4.328507 33.105284 6.60111
2005-07-07 08:54:44 51°33.368 3°0.058 17.431 4.328296 33.097532 6.297725
2005-07-07 08:55:44 51°33.329 3°0.054 17.4383 4.32798 33.09126 6.702238
2005-07-07 08:56:44 51°33.295 3°0.049 17.4425 4.327663 33.084395 5.859503
2005-07-07 08:57:45 51°33.265 3°0.04 17.5466 4.325449 33.051222 6.971913
2005-07-07 08:58:44 51°33.259 3°0.057 17.6032 4.316273 32.889637 7.71352
2005-07-07 08:59:44 51°33.347 3°0.117 17.639 4.314479 32.836171 7.544973
2005-07-07 09:00:44 51°33.474 3°0.234 17.5285 4.313319 32.798753 8.724802
2005-07-07 09:01:44 51°33.55 3°0.331 17.4781 4.325553 33.001172 9.061896
2005-07-07 09:02:44 51°33.552 3°0.315 17.4698 4.324288 33.025898 7.376426
2005-07-07 09:03:44 51°33.549 3°0.285 17.4674 4.323234 33.021044 6.702238
2005-07-07 09:04:44 51°33.58 3°0.303 17.4554 4.322074 33.014104 6.904494
2005-07-07 09:05:44 51°33.649 3°0.462 17.4581 4.323972 33.036834 7.309007
2005-07-07 09:06:44 51°33.74 3°0.66 17.4753 4.32218 33.017375 6.702238
2005-07-07 09:07:44 51°33.818 3°0.842 17.4912 4.320597 32.986699 7.410136
2005-07-07 09:08:44 51°33.818 3°0.923 17.5024 4.318805 32.963714 6.264016
2005-07-07 09:09:44 51°33.796 3°0.921 17.5091 4.316379 32.933575 6.634819
2005-07-07 09:10:44 51°33.778 3°0.912 17.5228 4.316273 32.929134 6.904494
2005-07-07 09:11:44 51°33.76 3°0.891 17.5252 4.316695 32.922108 6.5674
2005-07-07 09:12:44 51°33.741 3°0.864 17.5237 4.316062 32.913766 6.803366
2005-07-07 09:13:44 51°33.747 3°0.804 17.5162 4.313742 32.896352 7.14046
2005-07-07 09:14:44 51°33.765 3°0.609 17.5061 4.316906 32.928626 7.106751
2005-07-07 09:15:44 51°33.782 3°0.34 17.4773 4.318066 32.949735 6.264016
2005-07-07 09:16:44 51°33.785 3°0.066 17.4552 4.320387 32.993778 5.522409
2005-07-07 09:17:44 51°33.791 2°59.888 17.4558 4.320809 33.008041 6.735947
2005-07-07 09:18:45 51°33.764 2°59.854 17.4574 4.318805 32.992711 6.769657
2005-07-07 09:19:45 51°33.74 2°59.84 17.4572 4.320598 33.00624 6.870785
2005-07-07 09:20:44 51°33.712 2°59.818 17.4426 4.317961 32.983731 6.297725
2005-07-07 09:21:44 51°33.681 2°59.793 17.4149 4.319122 33.012008 6.398853
2005-07-07 09:22:44 51°33.646 2°59.766 17.4114 4.320704 33.042736 6.837076
2005-07-07 09:23:44 51°33.608 2°59.741 17.4137 4.320387 33.041814 6.5674
2005-07-07 09:24:44 51°33.571 2°59.719 17.42 4.319122 33.028622 6.129178
2005-07-07 09:25:43 51°33.487 2°59.668 17.4391 4.319438 33.024796 8.927059
2005-07-07 09:26:44 51°33.423 2°59.486 17.4272 4.318489 33.003638 6.129178
2005-07-07 09:27:44 51°33.356 2°59.281 17.4304 4.323973 33.057608 7.275298
2005-07-07 09:28:44 51°33.32 2°59.164 17.4298 4.323867 33.053738 7.410136
2005-07-07 09:29:44 51°33.282 2°59.162 17.4197 4.325133 33.066333 6.634819
2005-07-07 09:30:44 51°33.248 2°59.153 17.4137 4.322602 33.054209 7.612392
2005-07-07 09:31:44 51°33.216 2°59.141 17.4079 4.324289 33.072791 7.309007
2005-07-07 09:32:44 51°33.182 2°59.125 17.4012 4.327242 33.102795 6.870785
2005-07-07 09:33:45 51°33.162 2°59.069 17.3976 4.327769 33.112067 8.28658
2005-07-07 09:34:44 51°33.175 2°58.854 17.4084 4.325449 33.095797 7.477554
2005-07-07 09:35:44 51°33.168 2°58.571 17.4261 4.321442 33.047264 6.971913
2005-07-07 09:36:44 51°33.228 2°58.463 17.4585 4.327242 33.086735 8.28658
2005-07-07 09:37:44 51°33.238 2°58.474 17.463 4.317329 32.978329 5.994341
2005-07-07 09:38:44 51°33.212 2°58.473 17.4575 4.31775 32.980154 6.803366
2005-07-07 09:39:44 51°33.177 2°58.466 17.4409 4.323761 33.03444 7.74723
2005-07-07 09:40:45 51°33.14 2°58.453 17.4379 4.323445 33.044791 7.309007
2005-07-07 09:41:44 51°33.11 2°58.503 17.4357 4.317645 32.998803 6.533691
2005-07-07 09:42:45 51°33.177 2°58.592 17.4454 4.324711 33.060352 6.971913
2005-07-07 09:43:44 51°33.305 2°58.661 17.4432 4.324711 33.052039 6.196597
2005-07-07 09:44:44 51°33.437 2°58.747 17.4472 4.32102 33.020512 6.803366
2005-07-07 09:45:44 51°33.504 2°58.828 17.4532 4.318594 32.996834 5.117896
2005-07-07 09:46:45 51°33.516 2°58.861 17.4483 4.323129 33.034967 7.983195
2005-07-07 09:47:45 51°33.511 2°58.859 17.4557 4.321863 33.023567 6.702238
2005-07-07 09:48:45 51°33.497 2°58.845 17.4436 4.324394 33.041029 6.769657
2005-07-07 09:49:44 51°33.476 2°58.821 17.4368 4.32334 33.040329 6.769657
2005-07-07 09:50:44 51°33.449 2°58.787 17.4327 4.324394 33.056461 6.870785
2005-07-07 09:51:45 51°33.417 2°58.755 17.4045 4.32566 33.07381 6.061759
2005-07-07 09:52:44 51°33.387 2°58.727 17.4017 4.326188 33.096158 7.814648
2005-07-07 09:53:44 51°33.355 2°58.704 17.4031 4.325239 33.093398 5.926922
2005-07-07 09:54:45 51°33.321 2°58.685 17.4066 4.325133 33.088926 6.365144
2005-07-07 09:55:44 51°33.286 2°58.67 17.4012 4.325133 33.087736 6.196597
2005-07-07 09:56:44 51°33.25 2°58.655 17.3976 4.32566 33.095815 7.511264
2005-07-07 09:57:44 51°33.216 2°58.638 17.3952 4.325133 33.093091 7.309007
2005-07-07 09:58:44 51°33.18 2°58.621 17.3971 4.325977 33.103283 6.634819
2005-07-07 09:59:44 51°33.159 2°58.578 17.3972 4.323868 33.083459 8.994477
2005-07-07 10:00:44 51°33.171 2°58.546 17.4027 4.326082 33.097637 6.264016
2005-07-07 10:01:44 51°33.18 2°58.587 17.3918 4.324606 33.083227 7.477554
2005-07-07 10:02:44 51°33.201 2°58.653 17.3826 4.326715 33.110788 8.016905
2005-07-07 10:03:44 51°33.244 2°58.701 17.3973 4.325555 33.10563 7.241589
2005-07-07 10:04:44 51°33.293 2°58.739 17.4056 4.325239 33.094588 7.005623
2005-07-07 10:05:44 51°33.341 2°58.782 17.4114 4.325344 33.086565 8.084324
2005-07-07 10:06:44 51°33.391 2°58.826 17.4232 4.297399 32.844211 8.151742
2005-07-07 10:07:44 51°33.443 2°58.87 17.418 4.302566 32.880661 8.252871
2005-07-07 10:08:44 51°33.493 2°58.912 17.425 4.302671 32.882152 7.275298
2005-07-07 10:09:44 51°33.543 2°58.959 17.4402 4.305624 32.900866 8.016905
2005-07-07 10:10:44 51°33.593 2°59.008 17.4433 4.295711 32.805629 7.342717
2005-07-07 10:11:44 51°33.643 2°59.054 17.4321 4.290228 32.759431 7.511264
2005-07-07 10:12:44 51°33.685 2°59.114 17.4319 4.289173 32.757494 8.252871
2005-07-07 10:13:44 51°33.708 2°59.152 17.4364 4.288013 32.745243 7.207879
2005-07-07 10:14:45 51°33.719 2°59.173 17.428 4.284112 32.71372 6.432563
2005-07-07 10:15:44 51°33.731 2°59.18 17.4194 4.287803 32.750503 6.769657
2005-07-07 10:16:45 51°33.747 2°59.184 17.4057 4.287697 32.75902 8.488836
2005-07-07 10:17:44 51°33.763 2°59.196 17.3939 4.293181 32.8135 7.612392
2005-07-07 10:18:44 51°33.774 2°59.212 17.3902 4.28949 32.790824 7.17417
2005-07-07 10:19:44 51°33.776 2°59.219 17.3867 4.289279 32.793741 7.106751
2005-07-07 10:20:44 51°33.774 2°59.218 17.3893 4.284218 32.750506 7.073042
2005-07-07 10:21:44 51°33.769 2°59.215 17.389 4.286221 32.764672 7.544973
2005-07-07 10:22:44 51°33.764 2°59.214 17.3914 4.282636 32.735231 7.814648
2005-07-07 10:23:44 51°33.763 2°59.218 17.3848 4.284534 32.752619 7.207879
2005-07-07 10:24:44 51°33.764 2°59.22 17.3831 4.281793 32.731559 7.544973
2005-07-07 10:25:44 51°33.765 2°59.217 17.3837 4.273567 32.662499 6.735947
2005-07-07 10:26:44 51°33.767 2°59.219 17.3802 4.283374 32.748013 7.679811
2005-07-07 10:27:44 51°33.768 2°59.227 17.3869 4.276626 32.689786 6.971913
2005-07-07 10:28:44 51°33.769 2°59.239 17.3814 4.274517 32.67119 7.207879
2005-07-07 10:29:44 51°33.771 2°59.25 17.3809 4.275044 32.676867 7.544973
2005-07-07 10:30:44 51°33.773 2°59.251 17.3777 4.273251 32.660973 8.353999
2005-07-07 10:31:44 51°33.767 2°59.241 17.3815 4.273251 32.663911 6.702238
2005-07-07 10:32:45 51°33.756 2°59.224 17.3747 4.274833 32.679769 7.511264
2005-07-07 10:33:44 51°33.767 2°59.206 17.3746 4.27652 32.694178 7.882067
2005-07-07 10:34:44 51°33.849 2°59.289 17.3812 4.269771 32.63596 6.803366
2005-07-07 10:35:44 51°33.9 2°59.348 17.3852 4.26703 32.610205 8.151742
2005-07-07 10:36:44 51°33.95 2°59.32 17.39 4.272513 32.651734 8.219161
2005-07-07 10:37:44 51°33.962 2°59.478 17.3876 4.260492 32.543864 7.005623
2005-07-07 10:38:44 51°33.967 2°59.591 17.4007 4.266819 32.603713 8.455127
2005-07-07 10:39:45 51°33.973 2°59.604 17.4067 4.265764 32.582408 7.207879
2005-07-07 10:40:44 51°33.963 2°59.593 17.4041 4.265131 32.571155 6.499982
2005-07-07 10:41:44 51°33.967 2°59.588 17.4022 4.24942 32.43834 9.500118
2005-07-07 10:42:44 51°34.054 2°59.685 17.3912 4.248787 32.440526 7.511264
2005-07-07 10:43:44 51°34.148 2°59.852 17.3923 4.246889 32.426674 8.353999
2005-07-07 10:44:44 51°34.209 2°59.949 17.3867 4.247206 32.431703 7.646101
2005-07-07 10:45:44 51°34.223 2°59.954 17.3874 4.246151 32.423877 8.522546
2005-07-07 10:46:44 51°34.214 2°59.926 17.4009 4.249104 32.447306 8.758512
2005-07-07 10:47:44 51°34.207 2°59.874 17.3999 4.247627 32.428887 8.151742
2005-07-07 10:48:44 51°34.193 2°59.744 17.3947 4.249947 32.44925 8.219161
2005-07-07 10:49:44 51°34.17 2°59.516 17.3946 4.257223 32.510716 6.971913
2005-07-07 10:50:45 51°34.162 2°59.295 17.4025 4.246467 32.41958 7.612392
2005-07-07 10:51:44 51°34.179 2°59.229 17.3887 4.245518 32.409741 9.129315
2005-07-07 10:52:44 51°34.164 2°59.197 17.3892 4.2471 32.429638 7.241589
2005-07-07 10:53:44 51°34.138 2°59.163 17.3853 4.244042 32.40939 8.455127
2005-07-07 10:54:44 51°34.117 2°59.082 17.3827 4.24826 32.447697 7.780939
2005-07-07 10:55:44 51°34.026 2°58.959 17.3834 4.252478 32.482509 8.016905
2005-07-07 10:56:44 51°33.876 2°58.806 17.3949 4.239086 32.364802 9.938341
2005-07-07 10:57:44 51°33.731 2°58.679 17.3904 4.251951 32.471588 8.387708
2005-07-07 10:58:44 51°33.716 2°58.533 17.3614 4.240773 32.376276 8.589965
2005-07-07 10:59:44 51°33.711 2°58.488 17.3672 4.242144 32.406025 9.601247
2005-07-07 11:00:44 51°33.689 2°58.458 17.3637 4.240352 32.390734 10.578819
2005-07-07 11:01:45 51°33.665 2°58.419 17.3654 4.240879 32.40106 9.769794
2005-07-07 11:02:44 51°33.668 2°58.245 17.3781 4.249737 32.47197 9.028187
2005-07-07 11:03:44 51°33.687 2°57.997 17.381 4.245413 32.428662 10.073178
2005-07-07 11:04:44 51°33.717 2°57.765 17.3978 4.245202 32.41695 8.724802
2005-07-07 11:05:44 51°33.766 2°57.725 17.4055 4.246467 32.418415 9.196734
2005-07-07 11:06:44 51°33.762 2°57.713 17.4005 4.234236 32.309511 8.455127
2005-07-07 11:07:44 51°33.744 2°57.705 17.3917 4.242671 32.386053 10.477691
2005-07-07 11:08:44 51°33.729 2°57.742 17.3902 4.2316 32.296919 8.960768
2005-07-07 11:09:44 51°33.78 2°57.827 17.4078 4.226222 32.248197 10.005759
2005-07-07 11:10:44 51°33.878 2°57.975 17.4172 4.238031 32.334884 9.904631
2005-07-07 11:11:44 51°33.959 2°58.125 17.4148 4.222742 32.198878 9.028187
2005-07-07 11:12:44 51°33.984 2°58.178 17.4166 4.236872 32.325002 9.163024
2005-07-07 11:13:44 51°33.979 2°58.181 17.4267 4.221793 32.190799 8.556255
2005-07-07 11:14:44 51°33.965 2°58.17 17.4265 4.230334 32.258303 8.623674
2005-07-07 11:15:45 51°34.005 2°58.169 17.4204 4.227381 32.233167 8.927059
2005-07-07 11:16:44 51°34.067 2°58.304 17.4397 4.25775 32.493018 9.365281
2005-07-07 11:17:45 51°34.144 2°58.467 17.4557 4.221266 32.168401 8.016905
2005-07-07 11:18:44 51°34.189 2°58.543 17.469 4.221054 32.155064 7.71352
2005-07-07 11:19:44 51°34.187 2°58.553 17.4765 4.213041 32.077715 7.780939
2005-07-07 11:20:44 51°34.176 2°58.557 17.4814 4.211775 32.062361 7.005623
2005-07-07 11:21:44 51°34.171 2°58.575 17.4882 4.220949 32.134567 7.848358
2005-07-07 11:22:45 51°34.24 2°58.67 17.4903 4.216625 32.092648 8.151742
2005-07-07 11:23:44 51°34.315 2°58.794 17.4866 4.201336 31.962785 8.118033
2005-07-07 11:24:44 51°34.34 2°58.848 17.4814 4.206925 32.01426 6.904494
2005-07-07 11:25:44 51°34.335 2°58.856 17.4725 4.242987 32.326009 6.702238
2005-07-07 11:26:44 51°34.322 2°58.856 17.4711 4.202391 31.984924 7.17417
2005-07-07 11:27:44 51°34.371 2°58.896 17.476 4.199755 31.964824 7.376426
2005-07-07 11:28:45 51°34.505 2°58.985 17.4749 4.203867 31.994023 6.466272
2005-07-07 11:29:45 51°34.543 2°59.136 17.4535 4.234551 32.258882 6.971913
2005-07-07 11:30:44 51°34.563 2°59.219 17.4587 4.196276 31.94558 5.960631
2005-07-07 11:31:44 51°34.556 2°59.24 17.4579 4.220949 32.153014 6.533691
2005-07-07 11:32:45 51°34.543 2°59.249 17.4536 4.211881 32.078213 6.297725
2005-07-07 11:33:44 51°34.537 2°59.273 17.4526 4.237715 32.301434 6.095469
2005-07-07 11:34:45 51°34.634 2°59.249 17.4625 4.222847 32.176082 6.971913
2005-07-07 11:35:44 51°34.761 2°59.12 17.4629 4.188051 31.869995 6.904494
2005-07-07 11:36:44 51°34.88 2°58.935 17.4857 4.184572 31.838164 7.17417
2005-07-07 11:37:44 51°34.968 2°58.854 17.5351 4.183201 31.803714 5.926922
2005-07-07 11:38:45 51°34.983 2°58.852 17.5392 4.176241 31.713434 6.365144
2005-07-07 11:39:45 51°34.977 2°58.855 17.5367 4.249312 32.332881 6.095469
2005-07-07 11:40:44 51°34.96 2°58.859 17.5237 4.218628 32.072882 6.668529
2005-07-07 11:41:44 51°34.958 2°58.896 17.5447 4.162534 31.604113 7.073042
2005-07-07 11:42:44 51°35.002 2°58.868 17.5539 4.220842 32.084784 6.702238
2005-07-07 11:43:44 51°34.958 2°58.719 17.5575 4.158528 31.54985 7.241589
2005-07-07 11:44:44 51°34.821 2°58.528 17.5522 4.222951 32.090048 6.365144
2005-07-07 11:45:44 51°34.687 2°58.346 17.5404 4.151042 31.485938 7.005623
2005-07-07 11:46:44 51°34.645 2°58.305 17.5332 4.150409 31.486217 7.949486
2005-07-07 11:47:45 51°34.628 2°58.3 17.518 4.220948 32.094294 6.432563
2005-07-07 11:48:45 51°34.609 2°58.295 17.4948 4.227907 32.170077 6.971913
2005-07-07 11:49:44 51°34.591 2°58.253 17.4926 4.143978 31.467263 6.60111
2005-07-07 11:50:44 51°34.526 2°58.152 17.528 4.186996 31.830787 5.387571
2005-07-07 11:51:45 51°34.406 2°58.052 17.5233 4.213989 32.036377 5.623537
2005-07-07 11:52:44 51°34.32 2°57.931 17.5053 4.141553 31.434901 5.859503
2005-07-07 11:53:44 51°34.299 2°57.907 17.4928 4.226115 32.162916 5.050477
2005-07-07 11:54:44 51°34.284 2°57.909 17.4799 4.134278 31.390744 4.747093
2005-07-07 11:55:45 51°34.268 2°57.907 17.4799 4.216731 32.098722 5.286443
2005-07-07 11:56:44 51°34.232 2°57.805 17.4891 4.127742 31.343819 5.724665
2005-07-07 11:57:44 51°34.167 2°57.617 17.4796 4.209455 32.030589 6.02805
2005-07-07 11:58:44 51°34.068 2°57.438 17.4666 4.113509 31.226118 6.466272
2005-07-07 11:59:45 51°33.998 2°57.275 17.4661 4.221371 32.145067 6.297725
2005-07-07 12:00:44 51°33.982 2°57.247 17.4513 4.17698 31.762894 5.387571
2005-07-07 12:01:45 51°33.968 2°57.234 17.4464 4.222214 32.168969 5.320153
2005-07-07 12:02:44 51°33.953 2°57.231 17.4613 4.08072 30.963188 6.196597
2005-07-07 12:03:44 51°33.93 2°57.171 17.4758 4.145033 31.497068 5.320153
2005-07-07 12:04:44 51°33.859 2°57.042 17.4652 4.197435 31.939392 5.825794
2005-07-07 12:05:44 51°33.729 2°56.989 17.4444 4.15526 31.583771 7.039332
2005-07-07 12:06:44 51°33.581 2°56.957 17.4252 4.155366 31.597693 7.309007
2005-07-07 12:07:44 51°33.434 2°56.922 17.4226 4.196171 31.960739 6.803366
2005-07-07 12:08:44 51°33.285 2°56.884 17.3934 4.320071 33.026049 6.230306
2005-07-07 12:09:44 51°33.137 2°56.848 17.3461 4.322075 33.062776 5.522409
2005-07-07 12:10:44 51°32.989 2°56.81 17.3571 4.324606 33.115384 5.792084
2005-07-07 12:11:45 51°32.838 2°56.775 17.314 4.326926 33.122721 4.747093
2005-07-07 12:12:44 51°32.691 2°56.742 17.3357 4.330934 33.191658 5.4887
2005-07-07 12:13:44 51°32.542 2°56.709 17.2945 4.332621 33.194154 5.893212
2005-07-07 12:14:45 51°32.392 2°56.678 17.2778 4.335047 33.249663 5.421281
2005-07-07 12:15:44 51°32.245 2°56.652 17.2904 4.335469 33.261677 5.926922
2005-07-07 12:16:44 51°32.1 2°56.622 17.2447 4.337473 33.296281 4.544836
2005-07-07 12:17:44 51°31.952 2°56.596 17.2205 4.338844 33.32188 5.016768
2005-07-07 12:18:45 51°31.804 2°56.569 17.2414 4.33779 33.330281 4.039195
2005-07-07 12:19:44 51°31.66 2°56.541 17.2344 4.338844 33.334522 4.34258
2005-07-07 12:20:44 51°31.512 2°56.518 17.2442 4.338212 33.333905 5.084187
2005-07-07 12:21:44 51°31.369 2°56.493 17.2654 4.338 33.308622 5.522409
2005-07-07 12:22:44 51°31.225 2°56.468 17.2728 4.338949 33.305946 5.016768
2005-07-07 12:23:44 51°31.086 2°56.435 17.4794 4.340109 33.309289 6.938204
2005-07-07 12:24:44 51°30.95 2°56.4 17.683 4.331248 33.065146 6.803366
2005-07-07 12:25:44 51°30.813 2°56.367 17.8795 4.317536 32.756237 6.398853
2005-07-07 12:26:44 51°30.674 2°56.332 17.9237 4.31089 32.582773 6.803366
2005-07-07 12:27:45 51°30.535 2°56.297 17.9386 4.309835 32.539836 5.994341
2005-07-07 12:28:44 51°30.399 2°56.265 17.9339 4.311944 32.551288 5.522409
2005-07-07 12:29:45 51°30.218 2°56.213 17.9224 4.312366 32.556575 6.365144
2005-07-07 12:30:45 51°30.01 2°56.155 17.9028 4.316479 32.599926 6.702238
2005-07-07 12:31:44 51°29.8 2°56.109 17.8793 4.32017 32.648422 6.769657
2005-07-07 12:32:44 51°29.591 2°56.074 17.8462 4.321857 32.678886 6.837076
2005-07-07 12:33:44 51°29.379 2°56.037 17.7982 4.312894 32.627462 6.297725
2005-07-07 12:34:44 51°29.166 2°56.004 17.7314 4.318484 32.722338 6.398853
2005-07-07 12:35:44 51°28.955 2°55.963 18.0535 4.326921 32.840501 6.230306
2005-07-07 12:36:44 51°28.751 2°55.928 18.1662 4.284419 32.196225 5.893212
2005-07-07 12:37:44 51°28.546 2°55.901 18.1311 4.280938 32.113846 6.5674
2005-07-07 12:38:44 51°28.336 2°55.846 18.0728 4.29528 32.268074 5.4887
2005-07-07 12:39:45 51°28.126 2°55.806 18.0386 4.298444 32.328778 6.634819
2005-07-07 12:40:44 51°27.923 2°55.778 18.0109 4.299183 32.364652 7.241589
2005-07-07 12:41:45 51°27.721 2°55.743 17.9947 4.302979 32.411453 6.837076
2005-07-07 12:42:45 51°27.518 2°55.704 17.9917 4.303612 32.429377 5.960631
2005-07-07 12:43:44 51°27.314 2°55.67 17.9838 4.305827 32.447446 6.60111
2005-07-07 12:44:44 51°27.108 2°55.633 17.9586 4.307092 32.471869 5.657247
2005-07-07 12:45:44 51°26.9 2°55.592 17.9729 4.312471 32.532701 5.522409
2005-07-07 12:46:44 51°26.698 2°55.551 17.9417 4.315318 32.550368 5.117896
2005-07-07 12:47:44 51°26.493 2°55.506 17.9096 4.319326 32.608941 5.050477
2005-07-07 12:48:44 51°26.291 2°55.478 17.8047 4.324388 32.68115 5.421281
2005-07-07 12:49:45 51°26.083 2°55.444 17.7809 4.333669 32.827611 5.994341
2005-07-07 12:50:44 51°25.883 2°55.401 17.7572 4.335779 32.876426 5.859503
2005-07-07 12:51:44 51°25.67 2°55.372 17.7572 4.340946 32.931938 6.331435
2005-07-07 12:52:44 51°25.468 2°55.326 17.7541 4.342528 32.940663 6.230306
2005-07-07 12:53:45 51°25.262 2°55.271 17.7678 4.344004 32.956114 6.904494
2005-07-07 12:54:45 51°25.056 2°55.207 17.7426 4.338521 32.913128 6.162888
2005-07-07 12:55:44 51°24.852 2°55.143 17.7572 4.34063 32.936288 5.4887
2005-07-07 12:56:45 51°24.641 2°55.09 17.7813 4.343055 32.94572 5.859503
2005-07-07 12:57:45 51°24.44 2°55.03 17.9883 4.339258 32.891882 6.837076
2005-07-07 12:58:45 51°24.233 2°54.981 18.0408 4.321012 32.573599 5.185315
2005-07-07 12:59:44 51°24.034 2°54.924 18.0555 4.319113 32.520843 5.724665
2005-07-07 13:00:44 51°23.838 2°54.871 18.0363 4.321749 32.540153 7.780939
2005-07-07 13:01:45 51°23.635 2°54.818 18.0241 4.320062 32.536865 7.039332
2005-07-07 13:02:45 51°23.438 2°54.756 18.1155 4.319113 32.534046 5.320153
2005-07-07 13:03:44 51°23.24 2°54.702 18.226 4.30013 32.288886 7.207879
2005-07-07 13:04:44 51°23.037 2°54.634 18.2494 4.285261 32.092523 9.97205
2005-07-07 13:05:44 51°22.836 2°54.567 18.2518 4.285366 32.079334 8.927059
2005-07-07 13:06:44 51°22.633 2°54.509 18.287 4.288213 32.100323 8.960768
2005-07-07 13:07:44 51°22.428 2°54.451 18.3456 4.285998 32.049782 9.769794
2005-07-07 13:08:45 51°22.22 2°54.369 18.338 4.28663 32.010784 9.601247
2005-07-07 13:09:45 51°22.024 2°54.258 18.2995 4.293168 32.088318 9.061896
2005-07-07 13:10:44 51°21.829 2°54.158 18.2592 4.301816 32.18417 8.252871
2005-07-07 13:11:44 51°21.633 2°54.058 18.2292 4.313838 32.32146 7.309007
2005-07-07 13:12:44 51°21.437 2°53.966 18.2498 4.320692 32.39248 7.612392
2005-07-07 13:13:45 51°21.245 2°53.87 18.2834 4.319532 32.35948 7.376426
2005-07-07 13:14:44 51°21.057 2°53.768 18.2515 4.322696 32.379147 7.679811
2005-07-07 13:15:45 51°20.859 2°53.663 18.2038 4.332819 32.475273 6.499982
2005-07-07 13:16:44 51°20.663 2°53.563 18.1594 4.340202 32.572532 7.207879
2005-07-07 13:17:44 51°20.474 2°53.47 18.0213 4.349799 32.696108 7.275298
2005-07-07 13:18:44 51°20.283 2°53.382 17.9908 4.351383 32.814498 7.17417
2005-07-07 13:19:44 51°20.094 2°53.285 17.9825 4.348641 32.808771 6.971913
2005-07-07 13:20:44 51°19.895 2°53.184 17.9902 4.344529 32.779305 6.533691
2005-07-07 13:21:44 51°19.703 2°53.093 18.0045 4.346005 32.784802 7.443845
2005-07-07 13:22:45 51°19.501 2°53.001 18.0157 4.349274 32.802514 6.162888
2005-07-07 13:23:45 51°19.303 2°52.907 17.9991 4.352754 32.830693 7.443845
2005-07-07 13:24:44 51°19.108 2°52.812 18.0061 4.356023 32.865223 7.71352
2005-07-07 13:25:44 51°18.91 2°52.719 17.9942 4.364776 32.938474 5.960631
2005-07-07 13:26:45 51°18.709 2°52.659 18.0041 4.375006 33.027126 6.398853
2005-07-07 13:27:44 51°18.509 2°52.597 18.0204 4.379751 33.061927 7.780939
2005-07-07 13:28:44 51°18.306 2°52.535 18.0198 4.385024 33.093575 7.915777
2005-07-07 13:29:45 51°18.101 2°52.488 17.9829 4.401898 33.236604 6.837076
2005-07-07 13:30:45 51°17.902 2°52.443 17.948 4.41814 33.410391 6.837076
2005-07-07 13:31:45 51°17.702 2°52.389 17.9221 4.425944 33.498938 7.207879
2005-07-07 13:32:45 51°17.496 2°52.369 17.9021 4.429531 33.546526 7.376426
2005-07-07 13:33:45 51°17.29 2°52.371 17.8892 4.434699 33.611755 8.118033
2005-07-07 13:34:45 51°17.086 2°52.384 17.8759 4.439128 33.661258 8.657383
2005-07-07 13:35:45 51°16.883 2°52.446 17.8773 4.443558 33.707216 9.702375
2005-07-07 13:36:44 51°16.688 2°52.587 17.8715 4.451152 33.772283 9.567537
2005-07-07 13:37:45 51°16.496 2°52.77 17.8271 4.46096 33.863996 8.927059
2005-07-07 13:38:45 51°16.302 2°52.934 17.9135 4.47077 33.9763 8.421418
2005-07-07 13:39:44 51°16.114 2°53.103 18.0484 4.46233 33.810246 9.97205
2005-07-07 13:40:45 51°15.916 2°53.272 18.0889 4.454208 33.652623 7.848358
2005-07-07 13:41:44 51°15.726 2°53.439 18.0516 4.452204 33.616695 8.758512
2005-07-07 13:42:45 51°15.528 2°53.602 18.0364 4.457899 33.696921 9.702375
2005-07-07 13:43:44 51°15.336 2°53.747 18.0399 4.439548 33.536408 10.140597
2005-07-07 13:44:45 51°15.146 2°53.917 18.0839 4.41835 33.352603 9.297862
2005-07-07 13:45:45 51°14.967 2°54.105 18.1271 4.409385 33.239967 10.747366
2005-07-07 13:46:45 51°14.807 2°54.322 18.1271 4.383863 33.01558 11.286717
2005-07-07 13:47:45 51°14.649 2°54.549 18.0713 4.371524 32.906486 9.870922
2005-07-07 13:48:45 51°14.499 2°54.795 18.0223 4.372157 32.954767 11.320426
2005-07-07 13:49:45 51°14.365 2°55.06 18.007 4.361823 32.89729 13.140734
2005-07-07 13:50:44 51°14.264 2°55.264 18.2771 4.153249 31.106318 9.870922
2005-07-07 13:51:45 51°14.163 2°55.392 18.2958 3.71928 27.379547 10.309144
2005-07-07 13:52:45 51°14.062 2°55.466 18.3268 3.599789 26.396406 11.11817
2005-07-07 13:53:45 51°13.974 2°55.53 18.5444 3.506127 25.63122 -0.005933
2005-07-07 13:54:44 51°13.883 2°55.596 18.6204 3.509499 25.657616 -0.073352
2005-07-07 13:55:45 51°13.803 2°55.658 18.6939 3.510131 25.663182 -0.17448
2005-07-07 13:56:45 51°13.751 2°55.727 18.7574 3.510236 25.664035 -0.14077
2005-07-07 13:57:45 51°13.715 2°55.793 18.8338 3.510236 25.663587 -0.14077
2005-07-07 13:58:45 51°13.689 2°55.872 18.9128 3.509393 25.655868 -0.107061
2005-07-07 13:59:44 51°13.683 2°55.901 18.9882 3.50855 25.648151 -0.107061
2005-07-07 14:00:45 51°13.682 2°55.905 19.0524 3.508024 25.643887 -0.073352